Time;durP1;ratioP1;P1;durP2;ratioP2;P2;SDS_P1;SDS_P2;PMS_P1;PMS_P2;Temp;Humidity;BMP_temperature;BMP_pressure;BME280_temperature;BME280_humidity;BME280_pressure;Samples;Min_cycle;Max_cycle;Signal;HPM_P1;HPM_P2
2021/05/06 00:29:55;;;;;;;1.23;1.10;;;11.10;53.70;;;;;;5038388;28;20466;-42
2021/05/06 00:33:26;;;;;;;2.10;1.67;;;10.90;53.90;;;;;;5040904;28;20451;-42
2021/05/06 00:35:51;;;;;;;2.07;1.50;;;10.90;54.50;;;;;;5040978;28;20428;-42
2021/05/06 00:38:27;;;;;;;1.80;1.70;;;10.90;54.70;;;;;;5041278;28;20569;-45
2021/05/06 00:41:11;;;;;;;2.30;1.50;;;10.80;54.70;;;;;;5031956;28;20645;-42
2021/05/06 00:54:41;;;;;;;1.40;1.20;;;10.70;53.20;;;;;;5043670;28;20970;-42
2021/05/06 00:57:13;;;;;;;2.60;1.73;;;10.90;53.50;;;;;;5034640;28;20541;-42
2021/05/06 01:10:02;;;;;;;1.83;1.20;;;11.20;52.60;;;;;;5044903;28;21921;-42
2021/05/06 01:12:28;;;;;;;2.23;1.30;;;11.30;52.30;;;;;;5043680;28;20454;-44
2021/05/06 01:14:54;;;;;;;1.50;1.40;;;11.10;51.40;;;;;;5043403;28;21092;-42
2021/05/06 01:17:20;;;;;;;4.50;1.83;;;11.00;51.70;;;;;;5049022;28;20286;-44
2021/05/06 01:19:45;;;;;;;2.53;1.50;;;11.20;52.10;;;;;;5050185;28;20201;-42
2021/05/06 01:22:11;;;;;;;3.70;1.50;;;11.20;51.90;;;;;;5038086;28;20192;-42
2021/05/06 01:24:37;;;;;;;2.33;1.43;;;11.30;51.90;;;;;;5048657;28;20271;-42
2021/05/06 01:29:54;;;;;;;1.70;1.60;;;11.10;52.30;;;;;;5044235;28;20545;-44
2021/05/06 01:34:54;;;;;;;1.70;1.60;;;11.10;53.20;;;;;;5033036;28;20444;-42
2021/05/06 01:37:29;;;;;;;1.33;1.30;;;11.20;53.70;;;;;;5039031;28;20870;-43
2021/05/06 01:42:37;;;;;;;1.97;1.60;;;11.70;53.30;;;;;;5043576;28;20446;-42
2021/05/06 01:50:21;;;;;;;1.80;1.70;;;12.00;52.70;;;;;;5046635;28;20470;-43
2021/05/06 02:00:58;;;;;;;1.83;1.50;;;11.20;53.30;;;;;;5036761;28;20807;-42
2021/05/06 02:03:24;;;;;;;1.87;1.67;;;11.30;53.00;;;;;;5041076;28;20435;-42
2021/05/06 02:05:50;;;;;;;3.13;1.07;;;11.10;52.00;;;;;;5045886;28;20439;-42
2021/05/06 02:08:15;;;;;;;2.20;1.37;;;11.10;52.10;;;;;;5052310;28;20213;-43
2021/05/06 02:10:41;;;;;;;1.77;1.30;;;10.80;51.70;;;;;;5044001;28;20255;-44
2021/05/06 02:13:07;;;;;;;1.57;1.30;;;10.80;51.90;;;;;;5046967;28;20201;-43
2021/05/06 02:15:37;;;;;;;9.00;2.40;;;10.80;52.10;;;;;;5040416;28;20197;-42
2021/05/06 02:18:03;;;;;;;1.87;1.23;;;10.80;52.10;;;;;;5053399;28;20263;-42
2021/05/06 02:20:29;;;;;;;7.10;1.60;;;11.00;52.00;;;;;;5049503;28;20447;-43
2021/05/06 02:22:55;;;;;;;2.07;1.47;;;11.00;51.50;;;;;;5044898;28;20482;-44
2021/05/06 02:25:21;;;;;;;4.90;1.70;;;11.10;51.20;;;;;;5041436;28;20195;-42
2021/05/06 02:27:47;;;;;;;2.37;1.17;;;10.90;50.90;;;;;;5049406;28;20192;-43
2021/05/06 02:30:14;;;;;;;2.17;1.60;;;10.90;51.70;;;;;;5048093;28;20185;-43
2021/05/06 02:32:40;;;;;;;3.10;2.00;;;11.20;51.80;;;;;;5040653;28;20447;-45
2021/05/06 02:35:06;;;;;;;2.30;1.63;;;11.40;51.90;;;;;;5050253;28;20442;-44
2021/05/06 02:37:31;;;;;;;2.20;1.53;;;11.50;51.90;;;;;;5046554;28;20675;-43
2021/05/06 02:39:58;;;;;;;5.47;1.60;;;11.70;51.90;;;;;;5050258;28;20458;-43
2021/05/06 02:42:24;;;;;;;2.50;1.60;;;11.90;51.50;;;;;;5045304;28;20235;-44
2021/05/06 02:44:49;;;;;;;3.40;1.90;;;12.10;51.30;;;;;;5051003;28;20470;-43
2021/05/06 02:47:15;;;;;;;2.10;1.60;;;12.10;51.30;;;;;;5047545;28;20454;-43
2021/05/06 02:49:46;;;;;;;3.30;2.00;;;12.20;51.20;;;;;;5042011;28;20200;-42
2021/05/06 03:02:52;;;;;;;2.03;1.83;;;12.10;52.00;;;;;;5043955;28;20216;-42
2021/05/06 03:05:20;;;;;;;4.30;2.13;;;12.00;52.30;;;;;;5046516;28;20673;-43
2021/05/06 03:07:53;;;;;;;2.10;1.70;;;12.00;52.60;;;;;;5049452;28;20455;-43
2021/05/06 03:23:38;;;;;;;2.70;1.70;;;11.90;52.70;;;;;;5035076;28;20726;-43
2021/05/06 03:26:04;;;;;;;2.83;1.63;;;11.90;52.70;;;;;;5037669;28;20458;-42
2021/05/06 03:28:43;;;;;;;1.97;1.57;;;11.80;52.60;;;;;;5035254;28;20896;-42
2021/05/06 03:41:53;;;;;;;3.37;2.07;;;10.60;54.00;;;;;;5042258;28;20459;-43
2021/05/06 04:03:34;;;;;;;2.40;2.07;;;11.40;54.90;;;;;;5042239;28;20485;-42
2021/05/06 04:37:48;;;;;;;2.87;1.70;;;11.80;53.80;;;;;;5048783;28;21039;-43
2021/05/06 04:53:52;;;;;;;4.07;1.90;;;12.10;53.40;;;;;;5037385;28;20577;-42
2021/05/06 05:06:56;;;;;;;2.80;1.43;;;13.00;53.30;;;;;;5033324;28;20451;-42
2021/05/06 05:11:55;;;;;;;2.90;1.93;;;13.20;52.00;;;;;;5039512;28;20444;-42
2021/05/06 05:20:24;;;;;;;2.30;1.40;;;13.10;52.10;;;;;;5047912;28;20482;-42
2021/05/06 05:25:35;;;;;;;4.63;2.13;;;12.80;53.00;;;;;;5041038;28;20431;-42
2021/05/06 05:28:03;;;;;;;2.17;1.87;;;13.10;52.80;;;;;;5045141;28;20446;-42
2021/05/06 05:30:31;;;;;;;1.83;1.60;;;13.40;52.30;;;;;;5044810;28;20789;-43
2021/05/06 05:32:57;;;;;;;4.53;1.80;;;13.50;51.90;;;;;;5045590;28;20903;-43
2021/05/06 05:37:53;;;;;;;3.33;1.87;;;13.70;51.50;;;;;;5044903;28;20486;-42
2021/05/06 05:40:27;;;;;;;3.40;2.07;;;13.60;51.00;;;;;;5045280;28;20196;-42
2021/05/06 05:43:06;;;;;;;2.20;2.00;;;13.30;51.50;;;;;;5045725;28;20457;-43
2021/05/06 05:46:41;;;;;;;5.37;2.40;;;13.50;51.60;;;;;;5040928;28;20454;-42
2021/05/06 05:56:22;;;;;;;3.90;2.23;;;13.60;51.30;;;;;;5037445;28;20437;-43
2021/05/06 05:58:50;;;;;;;2.30;1.97;;;13.40;51.20;;;;;;5040516;28;20926;-43
2021/05/06 06:01:15;;;;;;;6.63;1.80;;;13.70;51.30;;;;;;5049455;28;20695;-41
2021/05/06 06:03:41;;;;;;;4.90;2.03;;;13.80;50.80;;;;;;5049002;28;20488;-41
2021/05/06 06:06:06;;;;;;;2.60;2.10;;;13.60;50.70;;;;;;5050701;28;20215;-41
2021/05/06 06:08:35;;;;;;;2.63;1.90;;;13.70;50.80;;;;;;5048250;28;20625;-41
2021/05/06 06:11:01;;;;;;;5.90;2.00;;;14.00;50.60;;;;;;5051063;28;20185;-41
2021/05/06 06:13:26;;;;;;;2.90;2.03;;;14.10;49.90;;;;;;5050483;28;20895;-41
2021/05/06 06:18:23;;;;;;;3.23;1.80;;;13.80;49.00;;;;;;5050110;28;20219;-43
2021/05/06 06:20:58;;;;;;;3.27;1.60;;;13.70;48.90;;;;;;5050912;28;20246;-41
2021/05/06 06:23:24;;;;;;;3.53;2.13;;;13.60;48.90;;;;;;5050200;28;20438;-41
2021/05/06 06:25:49;;;;;;;4.17;2.03;;;13.40;49.40;;;;;;5053789;28;20430;-41
2021/05/06 06:28:15;;;;;;;4.60;2.37;;;13.30;50.10;;;;;;5053095;28;20254;-41
2021/05/06 06:30:41;;;;;;;3.47;2.23;;;13.10;50.40;;;;;;5054348;28;20201;-41
2021/05/06 06:33:07;;;;;;;2.00;1.73;;;12.90;51.00;;;;;;5053691;28;20242;-41
2021/05/06 06:35:32;;;;;;;5.17;2.30;;;12.80;52.10;;;;;;5052747;28;20420;-41
2021/05/06 06:37:58;;;;;;;3.07;1.80;;;12.80;52.50;;;;;;5039768;28;20232;-43
2021/05/06 06:40:23;;;;;;;2.60;2.40;;;12.70;52.90;;;;;;5053616;28;20275;-42
2021/05/06 06:42:50;;;;;;;2.90;2.40;;;12.80;53.20;;;;;;5053725;28;20260;-41
2021/05/06 06:45:15;;;;;;;2.47;2.27;;;12.70;52.80;;;;;;5053509;28;20262;-43
2021/05/06 06:47:41;;;;;;;6.30;2.10;;;12.50;53.70;;;;;;5043785;28;20444;-41
2021/05/06 06:50:07;;;;;;;2.63;2.00;;;12.70;54.00;;;;;;5052762;28;20196;-44
2021/05/06 06:52:32;;;;;;;6.30;2.30;;;12.70;53.70;;;;;;5053333;28;20192;-41
2021/05/06 06:54:58;;;;;;;4.10;2.27;;;12.90;53.60;;;;;;5054171;28;20189;-41
2021/05/06 06:57:24;;;;;;;3.80;2.07;;;13.00;53.20;;;;;;5052780;28;20661;-41
2021/05/06 06:59:49;;;;;;;4.10;2.37;;;13.10;53.20;;;;;;5054057;28;20189;-43
2021/05/06 07:02:15;;;;;;;2.10;1.90;;;13.20;53.00;;;;;;5051859;28;20918;-41
2021/05/06 07:04:40;;;;;;;3.23;2.93;;;13.30;52.80;;;;;;5053351;28;20196;-41
2021/05/06 07:07:06;;;;;;;2.60;2.40;;;13.30;52.50;;;;;;5052582;28;20585;-43
2021/05/06 07:09:32;;;;;;;1.77;1.67;;;13.40;52.40;;;;;;5053117;28;20195;-41
2021/05/06 07:11:57;;;;;;;3.57;2.20;;;13.40;52.20;;;;;;5053235;28;20235;-42
2021/05/06 07:14:23;;;;;;;3.60;2.53;;;13.40;52.40;;;;;;5053466;28;20671;-42
2021/05/06 07:16:49;;;;;;;3.77;3.07;;;13.60;52.40;;;;;;5052908;28;20240;-42
2021/05/06 07:19:14;;;;;;;3.93;2.10;;;13.70;52.10;;;;;;5052977;28;20200;-42
2021/05/06 07:21:40;;;;;;;6.30;2.20;;;13.60;51.80;;;;;;5052762;28;20656;-43
2021/05/06 07:24:06;;;;;;;3.80;2.20;;;13.70;52.00;;;;;;5053175;28;20204;-42
2021/05/06 07:26:32;;;;;;;3.70;2.40;;;13.80;52.00;;;;;;5052835;28;20196;-41
2021/05/06 07:28:57;;;;;;;3.70;2.10;;;13.90;52.00;;;;;;5051453;28;20431;-44
2021/05/06 07:31:23;;;;;;;3.73;2.77;;;14.00;51.70;;;;;;5053211;28;20577;-42
2021/05/06 07:33:50;;;;;;;5.03;2.93;;;13.90;51.50;;;;;;5052327;28;20313;-42
2021/05/06 07:36:18;;;;;;;3.60;1.97;;;13.90;51.70;;;;;;5045047;28;20443;-43
2021/05/06 07:38:45;;;;;;;3.00;2.50;;;14.00;51.60;;;;;;5052169;28;20573;-42
2021/05/06 07:41:12;;;;;;;2.90;2.47;;;14.00;51.40;;;;;;5052230;28;20427;-41
2021/05/06 07:43:39;;;;;;;6.70;2.10;;;14.00;51.40;;;;;;5052442;28;20458;-42
2021/05/06 07:46:05;;;;;;;10.70;2.40;;;14.10;51.60;;;;;;5052997;28;20437;-44
2021/05/06 07:48:31;;;;;;;3.73;2.30;;;14.20;51.40;;;;;;5041837;28;20426;-41
2021/05/06 07:50:58;;;;;;;2.53;2.30;;;14.30;51.30;;;;;;5053100;28;20420;-42
2021/05/06 07:53:26;;;;;;;4.70;1.93;;;14.30;51.00;;;;;;5052141;28;20200;-42
2021/05/06 07:55:55;;;;;;;3.80;2.37;;;14.30;50.80;;;;;;5051253;28;20454;-42
2021/05/06 07:58:21;;;;;;;7.63;2.13;;;14.30;50.90;;;;;;5052051;28;20573;-42
2021/05/06 08:00:47;;;;;;;3.17;1.90;;;13.90;50.10;;;;;;5052966;28;20514;-43
2021/05/06 08:03:13;;;;;;;6.07;2.23;;;13.70;50.10;;;;;;5052096;28;20430;-41
2021/05/06 08:05:39;;;;;;;3.03;2.20;;;13.50;50.10;;;;;;5052494;28;20216;-43
2021/05/06 08:08:05;;;;;;;5.90;2.00;;;13.50;50.10;;;;;;5051773;28;20426;-41
2021/05/06 08:10:31;;;;;;;2.37;1.57;;;13.30;50.40;;;;;;5052280;28;20208;-41
2021/05/06 08:12:58;;;;;;;3.33;2.60;;;13.20;50.00;;;;;;5051584;28;20427;-42
2021/05/06 08:15:24;;;;;;;2.90;1.97;;;13.20;50.50;;;;;;5052383;28;20557;-42
2021/05/06 08:17:50;;;;;;;3.27;2.00;;;13.10;50.80;;;;;;5051328;28;20839;-41
2021/05/06 08:20:17;;;;;;;3.07;1.80;;;13.00;51.00;;;;;;5052434;28;20526;-43
2021/05/06 08:22:43;;;;;;;4.70;2.20;;;12.90;51.30;;;;;;5049887;28;20470;-42
2021/05/06 08:25:11;;;;;;;5.50;2.57;;;12.80;51.00;;;;;;5048705;28;20440;-43
2021/05/06 08:27:38;;;;;;;5.90;3.00;;;12.80;50.90;;;;;;5042673;28;20444;-43
2021/05/06 08:30:06;;;;;;;4.13;1.60;;;12.90;51.10;;;;;;5046232;28;20479;-43
2021/05/06 08:32:32;;;;;;;8.40;1.70;;;13.20;50.70;;;;;;5051729;28;20526;-43
2021/05/06 08:34:57;;;;;;;3.03;1.93;;;13.30;50.40;;;;;;5035233;28;20522;-43
2021/05/06 08:37:23;;;;;;;3.90;2.00;;;13.20;49.80;;;;;;5039795;28;20277;-43
2021/05/06 08:39:49;;;;;;;4.80;2.37;;;13.10;50.20;;;;;;5038287;28;20189;-43
2021/05/06 08:42:15;;;;;;;5.60;2.10;;;13.30;49.80;;;;;;5047130;28;20541;-45
2021/05/06 08:44:42;;;;;;;2.13;1.87;;;13.40;49.60;;;;;;5047249;28;20521;-43
2021/05/06 08:47:12;;;;;;;7.87;2.07;;;13.40;49.70;;;;;;5043103;28;20831;-43
2021/05/06 08:49:39;;;;;;;6.30;2.10;;;13.60;49.50;;;;;;5034767;28;20450;-43
2021/05/06 08:52:07;;;;;;;3.57;2.10;;;13.80;49.40;;;;;;5045426;28;20488;-43
2021/05/06 08:54:33;;;;;;;4.77;2.40;;;13.90;49.20;;;;;;5048652;28;20434;-45
2021/05/06 08:56:59;;;;;;;9.60;2.57;;;13.90;48.70;;;;;;5039104;28;20471;-43
2021/05/06 08:59:26;;;;;;;3.80;2.27;;;13.80;48.70;;;;;;5037949;28;20192;-43
2021/05/06 09:01:52;;;;;;;3.20;2.10;;;13.90;48.70;;;;;;5039478;28;20443;-40
2021/05/06 09:04:18;;;;;;;2.37;2.00;;;14.00;48.90;;;;;;5043440;28;20444;-40
2021/05/06 09:07:04;;;;;;;3.80;2.00;;;14.00;48.70;;;;;;5040841;28;20427;-41
2021/05/06 09:09:31;;;;;;;5.70;2.47;;;14.00;48.70;;;;;;5042058;28;20818;-40
2021/05/06 09:11:59;;;;;;;2.73;1.87;;;13.90;48.80;;;;;;5041613;28;20447;-41
2021/05/06 09:14:38;;;;;;;7.17;2.10;;;14.10;48.90;;;;;;5038631;28;20474;-40
2021/05/06 09:17:23;;;;;;;2.33;2.13;;;14.20;48.80;;;;;;5033853;28;20499;-41
2021/05/06 09:20:16;;;;;;;6.47;2.03;;;14.40;48.70;;;;;;5046012;28;20522;-42
2021/05/06 09:22:43;;;;;;;3.63;2.37;;;14.50;48.40;;;;;;5043879;28;20451;-41
2021/05/06 09:25:23;;;;;;;5.00;1.93;;;14.60;48.40;;;;;;5039035;28;20451;-40
2021/05/06 09:28:08;;;;;;;8.00;2.33;;;14.80;48.30;;;;;;5032323;28;20468;-41
2021/05/06 09:30:36;;;;;;;2.97;1.67;;;14.90;48.00;;;;;;5044636;28;20514;-40
2021/05/06 09:33:07;;;;;;;4.07;2.00;;;15.00;47.90;;;;;;5039809;28;20438;-40
2021/05/06 09:35:47;;;;;;;2.23;1.70;;;15.00;48.00;;;;;;5038828;28;20814;-41
2021/05/06 09:38:50;;;;;;;5.33;1.93;;;15.10;47.60;;;;;;5036108;28;20527;-40
2021/05/06 09:41:21;;;;;;;4.20;2.17;;;15.10;47.50;;;;;;5037697;28;20475;-41
2021/05/06 09:43:48;;;;;;;6.93;2.33;;;15.20;47.50;;;;;;5032449;28;20495;-40
2021/05/06 09:46:41;;;;;;;5.57;2.10;;;15.30;47.70;;;;;;5029573;28;20456;-40
2021/05/06 09:49:08;;;;;;;9.50;2.13;;;15.50;47.50;;;;;;5042785;28;20507;-40
2021/05/06 09:51:47;;;;;;;4.83;2.30;;;15.60;47.20;;;;;;5061672;28;20426;-40
2021/05/06 09:54:22;;;;;;;4.97;1.90;;;15.70;47.00;;;;;;5037900;28;20452;-40
2021/05/06 09:56:56;;;;;;;5.87;2.30;;;15.80;46.70;;;;;;5042773;28;20489;-41
2021/05/06 09:59:25;;;;;;;3.20;2.47;;;15.90;46.50;;;;;;5050829;28;20431;-40
2021/05/06 10:01:51;;;;;;;5.13;1.83;;;16.00;46.40;;;;;;5048861;28;20432;-41
2021/05/06 10:04:25;;;;;;;6.33;2.50;;;16.00;46.00;;;;;;5046294;28;20935;-44
2021/05/06 10:07:14;;;;;;;4.33;2.07;;;15.90;46.10;;;;;;5048862;28;20197;-40
2021/05/06 10:09:57;;;;;;;4.87;2.67;;;15.80;46.60;;;;;;5041547;28;20537;-42
2021/05/06 10:12:29;;;;;;;4.00;2.70;;;15.80;46.60;;;;;;5041676;28;20521;-42
2021/05/06 10:14:55;;;;;;;5.10;3.30;;;15.90;46.70;;;;;;5047637;28;20962;-40
2021/05/06 10:17:22;;;;;;;4.27;2.93;;;15.80;46.70;;;;;;5037236;28;20548;-41
2021/05/06 10:19:48;;;;;;;5.40;3.03;;;15.80;46.90;;;;;;5043279;28;21094;-40
2021/05/06 10:22:16;;;;;;;4.47;3.17;;;15.70;47.10;;;;;;5046039;28;20443;-40
2021/05/06 10:24:47;;;;;;;6.00;3.17;;;15.70;47.30;;;;;;5049389;28;20569;-41
2021/05/06 10:27:16;;;;;;;8.33;4.53;;;15.30;47.50;;;;;;5049345;28;20420;-40
2021/05/06 10:29:42;;;;;;;6.30;3.30;;;15.20;48.10;;;;;;5041848;28;20510;-40
2021/05/06 10:32:13;;;;;;;4.40;3.00;;;15.20;48.30;;;;;;5039878;28;20507;-42
2021/05/06 10:34:39;;;;;;;3.60;2.73;;;15.10;48.60;;;;;;5047659;28;20484;-40
2021/05/06 10:37:06;;;;;;;5.73;3.20;;;14.80;49.50;;;;;;5034630;28;20478;-42
2021/05/06 10:39:42;;;;;;;7.20;2.70;;;14.70;50.10;;;;;;5038740;28;20454;-41
2021/05/06 10:42:26;;;;;;;4.37;2.70;;;15.00;50.20;;;;;;5042940;28;21130;-40
2021/05/06 10:45:00;;;;;;;8.13;3.80;;;15.10;50.00;;;;;;5038636;28;20444;-42
2021/05/06 10:47:46;;;;;;;5.03;3.10;;;15.00;50.40;;;;;;5036350;28;20873;-42
2021/05/06 10:50:14;;;;;;;5.50;3.17;;;15.10;50.80;;;;;;5044021;28;20518;-42
2021/05/06 10:52:43;;;;;;;4.70;2.40;;;15.20;50.90;;;;;;5037135;28;21233;-41
2021/05/06 10:55:13;;;;;;;5.33;2.90;;;15.10;51.50;;;;;;5034535;28;20490;-42
2021/05/06 10:57:40;;;;;;;3.60;2.57;;;15.10;51.60;;;;;;5047083;28;21254;-41
2021/05/06 11:00:20;;;;;;;7.73;2.40;;;15.10;51.80;;;;;;5038275;28;20444;-41
2021/05/06 11:02:48;;;;;;;4.80;2.60;;;14.90;51.80;;;;;;5044013;28;20451;-41
2021/05/06 11:05:23;;;;;;;2.77;2.10;;;14.80;51.70;;;;;;5038689;28;20448;-41
2021/05/06 11:08:18;;;;;;;5.90;2.50;;;14.80;51.60;;;;;;5050148;28;20430;-41
2021/05/06 11:10:45;;;;;;;3.80;2.20;;;14.70;52.10;;;;;;5038626;28;20451;-41
2021/05/06 11:13:11;;;;;;;5.03;2.13;;;14.80;52.40;;;;;;5045969;28;20534;-41
2021/05/06 11:15:37;;;;;;;5.10;2.20;;;14.90;52.50;;;;;;5041565;28;20523;-41
2021/05/06 11:18:05;;;;;;;4.60;2.60;;;14.90;52.30;;;;;;5047251;28;20309;-42
2021/05/06 11:20:30;;;;;;;5.23;2.90;;;15.00;52.50;;;;;;5040753;28;20810;-42
2021/05/06 11:22:58;;;;;;;3.30;2.10;;;14.90;52.10;;;;;;5050208;28;20446;-42
2021/05/06 11:28:02;;;;;;;3.53;1.93;;;14.90;52.20;;;;;;5039403;28;20924;-42
2021/05/06 11:30:33;;;;;;;3.37;1.80;;;15.00;52.10;;;;;;5047981;28;20441;-41
2021/05/06 11:33:26;;;;;;;3.30;1.50;;;15.00;52.00;;;;;;5051695;28;21751;-42
2021/05/06 11:36:11;;;;;;;1.80;1.50;;;14.80;51.40;;;;;;5056248;28;20431;-41
2021/05/06 11:38:40;;;;;;;3.80;1.50;;;14.50;51.20;;;;;;5053732;28;20524;-41
2021/05/06 11:41:05;;;;;;;1.50;1.23;;;14.40;51.60;;;;;;5053048;28;20526;-42
2021/05/06 11:43:32;;;;;;;2.77;1.47;;;14.20;51.90;;;;;;5056902;28;20517;-41
2021/05/06 11:46:07;;;;;;;2.53;1.50;;;14.50;51.70;;;;;;5048345;28;20593;-43
2021/05/06 11:48:38;;;;;;;3.90;2.00;;;14.60;51.80;;;;;;5052953;28;20430;-42
2021/05/06 11:51:04;;;;;;;2.63;2.40;;;14.80;51.80;;;;;;5053842;28;20446;-42
2021/05/06 11:53:30;;;;;;;3.80;2.00;;;14.80;51.40;;;;;;5050945;28;20846;-41
2021/05/06 11:55:56;;;;;;;1.90;1.40;;;14.80;51.50;;;;;;5039141;28;20481;-41
2021/05/06 11:58:29;;;;;;;1.73;1.53;;;14.70;50.70;;;;;;5063233;28;20746;-42
2021/05/06 12:00:55;;;;;;;1.50;1.40;;;14.90;50.40;;;;;;5059065;28;20427;-41
2021/05/06 12:03:33;;;;;;;2.83;1.60;;;15.00;50.70;;;;;;5045600;28;20439;-44
2021/05/06 12:06:00;;;;;;;1.67;1.50;;;15.00;50.40;;;;;;5044317;28;20443;-44
2021/05/06 12:08:30;;;;;;;2.97;1.60;;;15.10;50.30;;;;;;5032272;28;20444;-43
2021/05/06 12:10:58;;;;;;;1.83;1.33;;;15.20;50.30;;;;;;5051234;28;20434;-40
2021/05/06 12:13:25;;;;;;;2.90;1.93;;;15.20;50.00;;;;;;5039782;28;20443;-41
2021/05/06 12:15:51;;;;;;;1.57;1.47;;;15.30;49.60;;;;;;5035024;28;20470;-40
2021/05/06 12:18:22;;;;;;;1.80;1.37;;;15.40;49.40;;;;;;5037830;28;21021;-41
2021/05/06 12:20:53;;;;;;;1.70;1.47;;;15.50;49.10;;;;;;5044695;28;20284;-40
2021/05/06 12:23:19;;;;;;;2.40;1.50;;;15.60;48.60;;;;;;5049653;28;20934;-40
2021/05/06 12:25:45;;;;;;;2.23;1.40;;;15.60;48.10;;;;;;5046082;28;20439;-41
2021/05/06 12:28:11;;;;;;;1.07;1.03;;;15.60;47.80;;;;;;5042395;28;20813;-42
2021/05/06 12:30:36;;;;;;;1.67;0.90;;;15.70;48.00;;;;;;5051052;28;20242;-41
2021/05/06 12:33:02;;;;;;;1.40;1.30;;;15.80;47.90;;;;;;5043479;28;20261;-41
2021/05/06 12:35:28;;;;;;;1.70;1.00;;;15.70;48.00;;;;;;5049770;28;20200;-42
2021/05/06 12:37:54;;;;;;;1.40;1.30;;;15.80;48.00;;;;;;5044254;28;20487;-41
2021/05/06 12:40:20;;;;;;;1.20;0.93;;;15.90;48.60;;;;;;5045133;28;20189;-40
2021/05/06 12:42:46;;;;;;;1.90;0.90;;;16.00;48.60;;;;;;5042989;28;20588;-41
2021/05/06 12:45:14;;;;;;;6.73;1.47;;;16.10;48.30;;;;;;5051593;28;20455;-42
2021/05/06 12:47:45;;;;;;;1.30;1.20;;;16.10;48.80;;;;;;5049254;28;20204;-40
2021/05/06 12:50:21;;;;;;;2.23;1.27;;;16.10;48.90;;;;;;5047277;28;20443;-41
2021/05/06 12:52:52;;;;;;;2.10;1.07;;;16.10;49.20;;;;;;5044897;28;20434;-40
2021/05/06 12:55:25;;;;;;;2.80;1.80;;;16.20;49.50;;;;;;5057831;28;20440;-40
2021/05/06 12:58:14;;;;;;;2.13;1.17;;;16.30;50.10;;;;;;5046733;28;20624;-40
2021/05/06 13:00:45;;;;;;;1.33;1.13;;;16.40;51.20;;;;;;5042525;28;20452;-41
2021/05/06 13:03:13;;;;;;;1.00;0.87;;;16.40;50.60;;;;;;5049468;28;20462;-40
2021/05/06 13:05:45;;;;;;;1.80;1.13;;;16.50;50.50;;;;;;5053830;28;20435;-40
2021/05/06 13:08:11;;;;;;;1.57;1.40;;;16.50;50.50;;;;;;5050086;28;20450;-40
2021/05/06 13:10:47;;;;;;;0.90;0.80;;;16.50;50.60;;;;;;5044034;28;20514;-40
2021/05/06 13:13:46;;;;;;;1.87;1.33;;;16.60;51.10;;;;;;5053861;28;20211;-40
2021/05/06 13:16:14;;;;;;;1.53;1.40;;;16.60;51.00;;;;;;5049836;28;20882;-42
2021/05/06 13:18:40;;;;;;;2.20;1.43;;;16.70;50.80;;;;;;5060709;28;20615;-42
2021/05/06 13:21:21;;;;;;;2.73;1.27;;;16.70;50.60;;;;;;5059241;28;20456;-42
2021/05/06 13:23:46;;;;;;;1.50;1.40;;;16.70;50.50;;;;;;5046170;28;20200;-42
2021/05/06 13:26:12;;;;;;;2.60;1.50;;;16.70;50.60;;;;;;5059198;28;20437;-42
2021/05/06 13:28:37;;;;;;;1.83;1.10;;;16.80;50.90;;;;;;5055917;28;20192;-42
2021/05/06 13:31:15;;;;;;;2.67;1.80;;;16.70;51.40;;;;;;5039101;28;20225;-42
2021/05/06 13:33:42;;;;;;;2.30;1.47;;;16.80;51.60;;;;;;5038658;28;20192;-42
2021/05/06 13:36:12;;;;;;;3.10;1.57;;;16.70;51.30;;;;;;5062058;28;20423;-40
2021/05/06 13:38:57;;;;;;;6.40;1.70;;;16.80;51.70;;;;;;5051465;28;20486;-40
2021/05/06 13:41:25;;;;;;;3.70;1.90;;;16.70;52.00;;;;;;5067487;28;20489;-40
2021/05/06 13:43:52;;;;;;;1.77;1.67;;;16.70;52.40;;;;;;5049649;28;20443;-39
2021/05/06 13:46:19;;;;;;;2.70;1.40;;;16.50;52.50;;;;;;5051560;28;20450;-39
2021/05/06 13:48:45;;;;;;;1.40;1.30;;;16.50;52.50;;;;;;5061541;28;20443;-39
2021/05/06 13:51:13;;;;;;;1.60;1.50;;;16.60;52.80;;;;;;5052964;28;20435;-39
2021/05/06 13:53:40;;;;;;;1.57;1.47;;;16.50;53.00;;;;;;5045744;28;20545;-39
2021/05/06 13:56:06;;;;;;;1.87;1.40;;;16.40;53.00;;;;;;5032239;28;20442;-40
2021/05/06 13:58:32;;;;;;;2.27;1.50;;;16.40;53.40;;;;;;5046085;28;20608;-39
2021/05/06 14:00:59;;;;;;;1.67;1.40;;;16.20;53.90;;;;;;5048241;28;20518;-40
2021/05/06 14:03:26;;;;;;;3.10;1.63;;;16.20;54.20;;;;;;5045386;28;20204;-41
2021/05/06 14:05:51;;;;;;;2.27;1.70;;;16.30;54.20;;;;;;5044628;28;20449;-39
2021/05/06 14:08:19;;;;;;;6.80;2.13;;;16.20;54.50;;;;;;5046091;28;20927;-40
2021/05/06 14:10:45;;;;;;;1.73;1.63;;;16.20;54.60;;;;;;5048102;28;20218;-40
2021/05/06 14:13:11;;;;;;;2.40;2.20;;;16.10;54.40;;;;;;5063179;28;20433;-40
2021/05/06 14:15:37;;;;;;;3.47;2.33;;;16.00;54.90;;;;;;5059243;28;20450;-40
2021/05/06 14:18:03;;;;;;;2.70;2.00;;;16.00;55.00;;;;;;5062582;28;20489;-41
2021/05/06 14:20:28;;;;;;;4.47;2.83;;;16.00;55.30;;;;;;5051563;28;20313;-41
2021/05/06 14:22:54;;;;;;;2.90;2.50;;;15.90;55.90;;;;;;5038462;28;20554;-40
2021/05/06 14:25:19;;;;;;;2.30;1.57;;;15.60;56.50;;;;;;5056352;28;20195;-40
2021/05/06 14:27:45;;;;;;;3.40;2.57;;;15.60;57.00;;;;;;5054953;28;20196;-40
2021/05/06 14:30:11;;;;;;;2.10;1.90;;;15.80;56.70;;;;;;5055849;28;20203;-41
2021/05/06 14:32:37;;;;;;;2.57;2.20;;;15.70;55.80;;;;;;5057847;28;20210;-40
2021/05/06 14:35:03;;;;;;;2.20;1.93;;;15.60;56.80;;;;;;5053851;28;20446;-40
2021/05/06 14:37:29;;;;;;;3.80;1.90;;;15.60;56.70;;;;;;5061749;28;20223;-41
2021/05/06 14:39:55;;;;;;;2.50;1.73;;;15.60;57.00;;;;;;5067625;28;20782;-41
2021/05/06 14:42:22;;;;;;;2.20;1.80;;;15.60;56.80;;;;;;5053571;28;20812;-41
2021/05/06 14:44:47;;;;;;;2.73;2.13;;;15.60;57.20;;;;;;5039237;28;20443;-41
2021/05/06 14:47:13;;;;;;;2.70;1.90;;;15.70;57.20;;;;;;5050825;28;20435;-41
2021/05/06 14:49:38;;;;;;;1.90;1.80;;;15.80;56.90;;;;;;5049527;28;20192;-41
2021/05/06 14:52:04;;;;;;;4.37;1.97;;;15.80;56.80;;;;;;5053911;28;20204;-41
2021/05/06 14:54:30;;;;;;;3.50;2.60;;;15.80;56.90;;;;;;5048063;28;20309;-41
2021/05/06 14:56:55;;;;;;;2.57;2.20;;;15.80;57.60;;;;;;5051936;28;20340;-40
2021/05/06 14:59:21;;;;;;;2.63;2.43;;;15.60;57.40;;;;;;5052280;28;20201;-40
2021/05/06 15:01:47;;;;;;;2.93;1.67;;;15.50;58.10;;;;;;5047888;28;20196;-40
2021/05/06 15:04:12;;;;;;;2.60;2.13;;;15.30;58.20;;;;;;5048641;28;20565;-40
2021/05/06 15:06:38;;;;;;;2.10;1.77;;;15.10;58.00;;;;;;5047898;28;20339;-40
2021/05/06 15:09:05;;;;;;;2.93;1.53;;;15.00;58.70;;;;;;5045494;28;20200;-40
2021/05/06 15:11:32;;;;;;;2.17;1.90;;;15.00;58.90;;;;;;5047290;28;20195;-40
2021/05/06 15:13:58;;;;;;;1.87;1.70;;;14.90;59.50;;;;;;5047473;28;20440;-41
2021/05/06 15:16:24;;;;;;;1.73;1.47;;;14.70;60.00;;;;;;5043519;28;20474;-41
2021/05/06 15:18:49;;;;;;;1.70;1.60;;;14.60;60.20;;;;;;5040943;28;20613;-41
2021/05/06 15:21:15;;;;;;;2.00;1.43;;;14.70;59.90;;;;;;5045417;28;20208;-41
2021/05/06 15:23:40;;;;;;;2.93;1.40;;;14.60;60.20;;;;;;5044197;28;20568;-42
2021/05/06 15:26:06;;;;;;;2.00;1.80;;;14.60;59.90;;;;;;5037442;28;20280;-41
2021/05/06 15:28:32;;;;;;;3.30;2.47;;;14.50;61.00;;;;;;5047633;28;20326;-41
2021/05/06 15:30:58;;;;;;;2.03;1.63;;;14.40;60.70;;;;;;5051069;28;20197;-41
2021/05/06 15:33:24;;;;;;;3.50;1.63;;;14.40;61.20;;;;;;5052034;28;20434;-41
2021/05/06 15:35:50;;;;;;;4.70;2.00;;;14.50;60.60;;;;;;5042043;28;20431;-41
2021/05/06 15:38:18;;;;;;;4.00;2.10;;;14.60;60.00;;;;;;5051250;28;20228;-42
2021/05/06 15:40:44;;;;;;;3.20;2.33;;;14.60;59.90;;;;;;5051893;28;20800;-41
2021/05/06 15:43:11;;;;;;;2.40;2.10;;;14.60;59.60;;;;;;5044271;28;20435;-41
2021/05/06 15:45:41;;;;;;;3.10;2.00;;;14.40;60.50;;;;;;5046728;28;20226;-41
2021/05/06 15:48:15;;;;;;;4.70;2.20;;;14.10;61.20;;;;;;5047634;28;20513;-41
2021/05/06 15:50:42;;;;;;;2.87;1.70;;;13.80;63.20;;;;;;5044876;28;20851;-41
2021/05/06 15:53:08;;;;;;;7.17;2.93;;;13.50;64.90;;;;;;5052969;28;20439;-41
2021/05/06 15:55:35;;;;;;;3.60;2.23;;;13.20;66.10;;;;;;5040427;28;20476;-41
2021/05/06 15:58:03;;;;;;;2.70;2.13;;;13.20;66.60;;;;;;5042697;28;20487;-42
2021/05/06 16:00:30;;;;;;;3.53;2.57;;;13.10;67.10;;;;;;5041034;28;20801;-41
2021/05/06 16:03:00;;;;;;;3.73;2.50;;;13.10;67.50;;;;;;5048958;28;20431;-41
2021/05/06 16:05:28;;;;;;;3.67;3.30;;;13.00;67.70;;;;;;5047867;28;20443;-41
2021/05/06 16:07:54;;;;;;;2.10;1.80;;;13.10;68.10;;;;;;5047805;28;20431;-41
2021/05/06 16:10:21;;;;;;;3.73;1.60;;;13.10;67.80;;;;;;5049186;28;20935;-41
2021/05/06 16:12:47;;;;;;;2.30;2.10;;;13.10;67.30;;;;;;5042545;28;20653;-41
2021/05/06 16:15:13;;;;;;;2.23;1.57;;;13.20;67.30;;;;;;5059555;28;20441;-41
2021/05/06 16:17:39;;;;;;;2.27;2.07;;;13.30;66.40;;;;;;5045285;28;20488;-41
2021/05/06 16:20:12;;;;;;;1.63;1.47;;;13.40;67.10;;;;;;5050732;28;20433;-41
2021/05/06 16:22:38;;;;;;;1.23;1.13;;;13.50;66.10;;;;;;5054343;28;20201;-41
2021/05/06 16:25:04;;;;;;;3.20;1.43;;;13.50;65.60;;;;;;5046480;28;20451;-42